createdAt,value
2019-04-04T00:02:01.332Z,15.80
2019-04-04T00:04:30.300Z,15.80
2019-04-04T00:06:59.683Z,15.80
2019-04-04T00:09:28.711Z,15.80
2019-04-04T00:11:57.916Z,15.80
2019-04-04T00:14:27.490Z,15.80
2019-04-04T00:16:56.881Z,15.80
2019-04-04T00:19:27.853Z,15.80
2019-04-04T00:21:57.232Z,15.80
2019-04-04T00:24:26.935Z,15.70
2019-04-04T00:26:56.325Z,15.70
2019-04-04T00:29:25.628Z,15.70
2019-04-04T00:31:54.582Z,15.70
2019-04-04T00:34:23.659Z,15.70
2019-04-04T00:36:53.206Z,15.70
2019-04-04T00:39:22.259Z,15.70
2019-04-04T00:41:51.360Z,15.60
2019-04-04T00:44:22.720Z,15.60
2019-04-04T00:46:51.091Z,15.60
2019-04-04T00:49:20.185Z,15.60
2019-04-04T00:51:49.221Z,15.60
2019-04-04T00:54:18.421Z,15.60
2019-04-04T00:56:48.728Z,15.60
2019-04-04T00:59:17.883Z,15.60
2019-04-04T01:01:46.895Z,15.50
2019-04-04T01:04:15.974Z,15.50
2019-04-04T01:06:44.928Z,15.60
2019-04-04T01:09:13.936Z,15.60
2019-04-04T01:11:42.844Z,15.60
2019-04-04T01:14:11.853Z,15.50
2019-04-04T01:16:40.968Z,15.50
2019-04-04T01:19:10.463Z,15.50
2019-04-04T01:21:39.493Z,15.50
2019-04-04T01:24:08.437Z,15.50
2019-04-04T01:26:37.516Z,15.40
2019-04-04T01:29:10.189Z,15.40
2019-04-04T01:31:37.251Z,15.40
2019-04-04T01:34:06.297Z,15.40
2019-04-04T01:36:35.271Z,15.40
2019-04-04T01:39:06.316Z,15.40
2019-04-04T01:41:36.317Z,15.40
2019-04-04T01:44:06.021Z,15.40
2019-04-04T01:46:35.054Z,15.30
2019-04-04T01:49:04.403Z,15.30
2019-04-04T01:51:34.167Z,15.30
2019-04-04T01:54:03.308Z,15.30
2019-04-04T01:56:32.830Z,15.30
2019-04-04T01:59:02.262Z,15.30
2019-04-04T02:01:31.514Z,15.30
2019-04-04T02:04:00.565Z,15.20
2019-04-04T02:06:29.645Z,15.20
2019-04-04T02:08:58.581Z,15.20
2019-04-04T02:11:27.915Z,15.20
2019-04-04T02:13:57.146Z,15.20
2019-04-04T02:16:26.458Z,15.20
2019-04-04T02:18:55.611Z,15.20
2019-04-04T02:21:24.939Z,15.10
2019-04-04T02:23:54.003Z,15.10
2019-04-04T02:26:23.085Z,15.10
2019-04-04T02:28:52.191Z,15.10
2019-04-04T02:31:21.898Z,15.10
2019-04-04T02:33:50.906Z,15.10
2019-04-04T02:36:20.079Z,15.10
2019-04-04T02:39:04.292Z,15.10
2019-04-04T02:41:33.576Z,15.00
2019-04-04T02:44:03.022Z,15.00
2019-04-04T02:46:32.070Z,15.00
2019-04-04T02:49:01.328Z,15.00
2019-04-04T02:51:30.374Z,15.00
2019-04-04T02:53:59.343Z,15.00
2019-04-04T02:56:28.392Z,15.00
2019-04-04T02:58:57.463Z,14.90
2019-04-04T03:01:26.552Z,14.90
2019-04-04T03:03:55.934Z,14.90
2019-04-04T03:06:25.164Z,14.90
2019-04-04T03:08:54.200Z,14.90
2019-04-04T03:11:25.789Z,14.80
2019-04-04T03:13:56.108Z,14.80
2019-04-04T03:16:25.405Z,14.80
2019-04-04T03:18:55.052Z,14.80
2019-04-04T03:21:24.427Z,14.70
2019-04-04T03:23:53.483Z,14.70
2019-04-04T03:26:22.533Z,14.70
2019-04-04T03:28:51.797Z,14.70
2019-04-04T03:31:20.949Z,14.70
2019-04-04T03:33:50.048Z,14.60
2019-04-04T03:36:19.311Z,14.60
2019-04-04T03:38:48.359Z,14.60
2019-04-04T03:41:17.473Z,14.60
2019-04-04T03:43:48.998Z,14.60
2019-04-04T03:46:17.269Z,14.60
2019-04-04T03:48:49.910Z,14.60
2019-04-04T03:51:17.083Z,14.60
2019-04-04T03:53:51.885Z,14.60
2019-04-04T03:56:20.957Z,14.50
2019-04-04T03:58:49.934Z,14.50
2019-04-04T04:01:18.949Z,14.50
2019-04-04T04:03:47.976Z,14.50
2019-04-04T04:06:17.200Z,14.40
2019-04-04T04:08:46.155Z,14.40
2019-04-04T04:11:15.238Z,14.40
2019-04-04T04:13:48.901Z,14.40
2019-04-04T04:16:15.082Z,14.40
2019-04-04T04:18:44.175Z,14.40
2019-04-04T04:21:13.253Z,14.40
2019-04-04T04:23:42.550Z,14.40
2019-04-04T04:26:11.674Z,14.40
2019-04-04T04:28:40.678Z,14.40
2019-04-04T04:31:14.301Z,14.30
2019-04-04T04:33:40.986Z,14.30
2019-04-04T04:36:12.831Z,14.30
2019-04-04T04:38:41.120Z,14.30
2019-04-04T04:41:10.246Z,14.30
2019-04-04T04:43:39.349Z,14.30
2019-04-04T04:46:08.505Z,14.20
2019-04-04T04:48:39.192Z,14.20
2019-04-04T04:51:11.570Z,14.20
2019-04-04T04:53:39.073Z,14.30
2019-04-04T04:56:08.228Z,14.20
2019-04-04T04:58:42.012Z,14.30
2019-04-04T05:01:13.856Z,14.30
2019-04-04T05:03:43.013Z,14.30
2019-04-04T05:06:12.260Z,14.30
2019-04-04T05:08:41.602Z,14.30
2019-04-04T05:11:10.791Z,14.30
2019-04-04T05:13:39.732Z,14.30
2019-04-04T05:16:09.047Z,14.30
2019-04-04T05:18:38.325Z,14.30
2019-04-04T05:21:07.434Z,14.30
2019-04-04T05:23:36.868Z,14.30
2019-04-04T05:26:06.051Z,14.30
2019-04-04T05:28:35.802Z,14.40
2019-04-04T05:31:05.313Z,14.40
2019-04-04T05:33:34.368Z,14.40
2019-04-04T05:36:05.327Z,14.40
2019-04-04T05:38:34.268Z,14.40
2019-04-04T05:41:03.491Z,14.40
2019-04-04T05:43:32.631Z,14.40
2019-04-04T05:46:01.909Z,14.40
2019-04-04T05:48:31.387Z,14.40
2019-04-04T05:51:00.534Z,14.40
2019-04-04T05:53:29.572Z,14.40
2019-04-04T05:55:58.833Z,14.50
2019-04-04T05:58:28.492Z,14.50
2019-04-04T06:00:57.891Z,14.50
2019-04-04T06:03:27.672Z,14.50
2019-04-04T06:06:01.334Z,14.50
2019-04-04T06:08:31.012Z,14.50
2019-04-04T06:11:02.296Z,14.40
2019-04-04T06:13:31.364Z,14.40
2019-04-04T06:16:02.132Z,14.50
2019-04-04T06:18:31.527Z,14.50
2019-04-04T06:21:00.926Z,14.60
2019-04-04T06:23:31.312Z,14.60
2019-04-04T06:26:01.559Z,14.60
2019-04-04T06:28:31.038Z,14.60
2019-04-04T06:31:00.888Z,14.70
2019-04-04T06:33:30.052Z,14.70
2019-04-04T06:35:59.546Z,14.70
2019-04-04T06:38:29.768Z,14.70
2019-04-04T06:41:00.948Z,14.60
2019-04-04T06:43:30.023Z,14.70
2019-04-04T06:45:59.223Z,14.80
2019-04-04T06:48:33.533Z,14.90
2019-04-04T06:51:01.129Z,15.00
2019-04-04T06:53:30.766Z,15.00
2019-04-04T06:56:01.096Z,15.10
2019-04-04T06:58:32.347Z,15.10
2019-04-04T07:01:01.379Z,15.20
2019-04-04T07:03:30.519Z,15.20
2019-04-04T07:05:59.634Z,15.30
2019-04-04T07:08:28.907Z,15.30
2019-04-04T07:11:02.308Z,15.40
2019-04-04T07:13:41.364Z,15.40
2019-04-04T07:16:06.760Z,15.50
2019-04-04T07:18:30.516Z,15.50
2019-04-04T07:20:59.562Z,15.60
2019-04-04T07:23:29.443Z,15.60
2019-04-04T07:25:58.897Z,15.60
2019-04-04T07:28:30.696Z,15.50
2019-04-04T07:30:59.308Z,15.50
2019-04-04T07:33:30.048Z,15.50
2019-04-04T07:35:59.332Z,15.60
2019-04-04T07:38:28.687Z,15.60
2019-04-04T07:40:58.347Z,15.70
2019-04-04T07:43:29.156Z,15.70
2019-04-04T07:46:01.422Z,15.80
2019-04-04T07:48:28.996Z,15.80
2019-04-04T07:51:10.964Z,15.80
2019-04-04T07:53:40.293Z,15.80
2019-04-04T07:56:10.010Z,15.90
2019-04-04T07:58:39.043Z,15.90
2019-04-04T08:01:08.214Z,15.90
2019-04-04T08:03:37.274Z,15.90
2019-04-04T08:06:06.530Z,15.90
2019-04-04T08:08:35.870Z,15.90
2019-04-04T08:11:05.337Z,15.90
2019-04-04T08:13:34.584Z,15.90
2019-04-04T08:16:04.572Z,16.00
2019-04-04T08:18:33.706Z,16.00
2019-04-04T08:21:05.634Z,15.90
2019-04-04T08:23:33.727Z,15.90
2019-04-04T08:26:02.787Z,16.00
2019-04-04T08:28:32.430Z,16.00
2019-04-04T08:31:01.797Z,16.10
2019-04-04T08:33:50.248Z,16.20
2019-04-04T08:36:19.680Z,16.20
2019-04-04T08:38:49.080Z,16.30
2019-04-04T08:41:20.578Z,16.40
2019-04-04T08:43:49.700Z,16.40
2019-04-04T08:46:20.094Z,16.40
2019-04-04T08:48:49.352Z,16.50
2019-04-04T08:51:18.485Z,16.50
2019-04-04T08:53:47.682Z,16.60
2019-04-04T08:56:16.992Z,16.60
2019-04-04T08:58:46.321Z,16.60
2019-04-04T09:01:15.578Z,16.60
2019-04-04T09:03:44.840Z,16.70
2019-04-04T09:06:14.187Z,16.70
2019-04-04T09:08:44.042Z,16.80
2019-04-04T09:11:13.136Z,16.90
2019-04-04T09:13:43.391Z,16.90
2019-04-04T09:16:13.681Z,16.90
2019-04-04T09:18:43.071Z,16.90
2019-04-04T09:21:12.283Z,17.00
2019-04-04T09:23:41.296Z,17.00
2019-04-04T09:26:10.475Z,17.00
2019-04-04T09:28:39.509Z,17.00
2019-04-04T09:31:09.777Z,17.00
2019-04-04T09:33:38.986Z,17.00
2019-04-04T09:36:08.443Z,17.00
2019-04-04T09:38:38.084Z,17.10
2019-04-04T09:41:10.244Z,17.10
2019-04-04T09:43:39.465Z,17.10
2019-04-04T09:46:08.610Z,17.10
2019-04-04T09:48:37.773Z,17.10
2019-04-04T09:51:07.242Z,17.10
2019-04-04T09:53:52.300Z,17.20
2019-04-04T09:56:08.969Z,17.20
2019-04-04T09:58:38.145Z,17.20
2019-04-04T10:01:07.514Z,17.20
2019-04-04T10:03:37.152Z,17.20
2019-04-04T10:06:06.805Z,17.20
2019-04-04T10:08:38.671Z,17.20
2019-04-04T10:11:06.899Z,17.20
2019-04-04T10:13:37.353Z,17.20
2019-04-04T10:16:06.685Z,17.20
2019-04-04T10:18:35.734Z,17.30
2019-04-04T10:21:11.762Z,17.30
2019-04-04T10:23:46.317Z,17.40
2019-04-04T10:26:16.587Z,17.50
2019-04-04T10:28:48.068Z,17.50
2019-04-04T10:31:18.315Z,17.60
2019-04-04T10:33:47.858Z,17.60
2019-04-04T10:36:18.049Z,17.60
2019-04-04T10:38:48.577Z,17.70
2019-04-04T10:41:17.731Z,17.70
2019-04-04T10:43:47.276Z,17.70
2019-04-04T10:46:17.001Z,17.80
2019-04-04T10:48:46.697Z,17.80
2019-04-04T10:51:18.121Z,17.90
2019-04-04T10:54:08.179Z,17.90
2019-04-04T10:56:50.501Z,18.00
2019-04-04T10:59:23.247Z,18.00
2019-04-04T11:01:53.241Z,18.00
2019-04-04T11:04:31.499Z,18.00
2019-04-04T11:07:04.951Z,18.00
2019-04-04T11:09:41.830Z,18.00
2019-04-04T11:12:05.210Z,18.00
2019-04-04T11:14:41.018Z,18.00
2019-04-04T11:17:13.048Z,18.00
2019-04-04T11:19:43.497Z,18.00
2019-04-04T11:22:13.077Z,18.00
2019-04-04T11:24:42.749Z,18.10
2019-04-04T11:27:12.252Z,18.10
2019-04-04T11:29:43.064Z,18.10
2019-04-04T11:32:16.806Z,18.10
2019-04-04T11:34:52.947Z,18.10
2019-04-04T11:37:17.036Z,18.10
2019-04-04T11:40:09.514Z,18.20
2019-04-04T11:42:41.451Z,18.20
2019-04-04T11:45:10.751Z,18.20
2019-04-04T11:47:40.915Z,18.30
2019-04-04T11:53:00.055Z,18.40
2019-04-04T11:55:33.546Z,18.40
2019-04-04T11:58:03.401Z,18.40
2019-04-04T12:00:36.993Z,18.40
2019-04-04T12:03:06.308Z,18.40
2019-04-04T12:05:36.275Z,18.40
2019-04-04T12:08:05.779Z,18.40
2019-04-04T12:10:35.229Z,18.30
2019-04-04T12:13:05.114Z,18.30
2019-04-04T12:15:41.149Z,18.30
2019-04-04T12:18:11.451Z,18.40
2019-04-04T12:20:43.501Z,18.40
2019-04-04T12:23:11.848Z,18.40
2019-04-04T12:25:42.624Z,18.50
2019-04-04T12:28:12.981Z,18.50
2019-04-04T12:30:44.184Z,18.50
2019-04-04T12:33:13.217Z,18.60
2019-04-04T12:35:42.495Z,18.70
2019-04-04T12:38:11.833Z,18.70
2019-04-04T12:40:45.865Z,18.80
2019-04-04T12:46:37.963Z,18.80
2019-04-04T12:49:09.181Z,18.90
2019-04-04T12:51:38.689Z,19.00
2019-04-04T12:54:08.780Z,19.00
2019-04-04T12:56:48.445Z,19.00
2019-04-04T12:59:22.664Z,19.10
2019-04-04T13:01:52.293Z,19.10
2019-04-04T13:04:30.987Z,19.20
2019-04-04T13:07:30.862Z,19.20
2019-04-04T13:10:12.026Z,19.20
2019-04-04T13:12:43.498Z,19.20
2019-04-04T13:15:16.912Z,19.20
2019-04-04T13:17:51.036Z,19.20
2019-04-04T13:20:49.697Z,19.20
2019-04-04T13:23:19.458Z,19.20
2019-04-04T13:25:52.681Z,19.20
2019-04-04T13:28:36.912Z,19.20
2019-04-04T13:31:10.552Z,19.20
2019-04-04T13:36:36.726Z,19.20
2019-04-04T13:39:14.663Z,19.20
2019-04-04T13:41:46.718Z,19.20
2019-04-04T13:44:17.298Z,19.20
2019-04-04T13:46:46.594Z,19.20
2019-04-04T13:49:16.318Z,19.20
2019-04-04T13:51:45.560Z,19.20
2019-04-04T13:54:23.133Z,19.20
2019-04-04T13:56:52.391Z,19.20
2019-04-04T13:59:22.006Z,19.30
2019-04-04T14:01:51.102Z,19.20
2019-04-04T14:04:20.552Z,19.30
2019-04-04T14:06:49.849Z,19.30
2019-04-04T14:09:18.964Z,19.30
2019-04-04T14:11:48.072Z,19.30
2019-04-04T14:14:17.934Z,19.40
2019-04-04T14:16:47.055Z,19.40
2019-04-04T14:19:16.194Z,19.40
2019-04-04T14:21:45.917Z,19.50
2019-04-04T14:24:15.024Z,19.50
2019-04-04T14:26:45.996Z,19.60
2019-04-04T14:29:26.822Z,19.60
2019-04-04T14:31:45.719Z,19.70
2019-04-04T14:34:14.986Z,19.70
2019-04-04T14:36:44.230Z,19.70
2019-04-04T14:39:13.527Z,19.80
2019-04-04T14:41:42.775Z,19.80
2019-04-04T14:44:11.820Z,19.80
2019-04-04T14:46:41.228Z,19.90
2019-04-04T14:49:14.202Z,19.90
2019-04-04T14:51:42.718Z,19.90
2019-04-04T14:54:12.125Z,19.80
2019-04-04T14:56:44.664Z,19.70
2019-04-04T14:59:14.496Z,19.60
2019-04-04T15:01:43.818Z,19.60
2019-04-04T15:04:13.142Z,19.50
2019-04-04T15:06:42.384Z,19.50
2019-04-04T15:09:11.582Z,19.50
2019-04-04T15:11:40.932Z,19.60
2019-04-04T15:14:10.247Z,19.70
2019-04-04T15:16:39.522Z,19.70
2019-04-04T15:19:08.800Z,19.90
2019-04-04T15:21:38.083Z,20.00
2019-04-04T15:24:07.114Z,20.00
2019-04-04T15:26:36.409Z,20.10
2019-04-04T15:29:05.753Z,20.20
2019-04-04T15:31:35.116Z,20.20
2019-04-04T15:34:04.667Z,20.20
2019-04-04T15:36:33.883Z,20.20
2019-04-04T15:39:04.876Z,20.20
2019-04-04T15:41:37.256Z,20.20
2019-04-04T15:44:05.231Z,20.20
2019-04-04T15:46:34.567Z,20.20
2019-04-04T15:49:04.037Z,20.10
2019-04-04T15:51:33.790Z,20.10
2019-04-04T15:54:02.978Z,20.10
2019-04-04T15:56:32.190Z,20.10
2019-04-04T15:59:01.232Z,20.10
2019-04-04T16:01:30.597Z,20.10
2019-04-04T16:03:59.916Z,20.10
2019-04-04T16:06:29.505Z,20.10
2019-04-04T16:08:58.886Z,20.00
2019-04-04T16:11:28.016Z,20.00
2019-04-04T16:13:57.471Z,19.90
2019-04-04T16:16:26.817Z,19.90
2019-04-04T16:18:55.952Z,19.80
2019-04-04T16:21:25.601Z,19.80
2019-04-04T16:23:56.066Z,19.70
2019-04-04T16:26:25.728Z,19.70
2019-04-04T16:29:13.151Z,19.60
2019-04-04T16:31:42.818Z,19.60
2019-04-04T16:34:15.339Z,19.60
2019-04-04T16:36:46.990Z,19.50
2019-04-04T16:39:16.073Z,19.50
2019-04-04T16:41:45.648Z,19.50
2019-04-04T16:44:15.117Z,19.40
2019-04-04T16:47:05.659Z,19.40
2019-04-04T16:49:47.325Z,19.40
2019-04-04T16:52:30.744Z,19.40
2019-04-04T16:55:02.640Z,19.50
2019-04-04T16:57:34.881Z,19.50
2019-04-04T17:00:05.590Z,19.50
2019-04-04T17:02:35.337Z,19.50
2019-04-04T17:05:05.238Z,19.50
2019-04-04T17:07:34.286Z,19.50
2019-04-04T17:10:03.715Z,19.50
2019-04-04T17:12:37.064Z,19.50
2019-04-04T17:15:13.653Z,19.40
2019-04-04T17:17:43.581Z,19.30
2019-04-04T17:20:17.476Z,19.30
2019-04-04T17:22:46.535Z,19.30
2019-04-04T17:25:16.192Z,19.20
2019-04-04T17:27:45.767Z,19.20
2019-04-04T17:30:16.024Z,19.10
2019-04-04T17:32:48.491Z,19.10
2019-04-04T17:35:24.678Z,19.00
2019-04-04T17:37:59.504Z,19.00
2019-04-04T17:40:30.040Z,18.90
2019-04-04T17:43:07.025Z,18.90
2019-04-04T17:45:37.874Z,18.90
2019-04-04T17:48:15.571Z,18.90
2019-04-04T17:51:11.428Z,18.80
2019-04-04T17:53:40.957Z,18.80
2019-04-04T17:56:12.322Z,18.80
2019-04-04T17:58:42.458Z,18.70
2019-04-04T18:01:13.777Z,18.70
2019-04-04T18:03:43.422Z,18.70
2019-04-04T18:06:12.792Z,18.70
2019-04-04T18:08:42.357Z,18.70
2019-04-04T18:11:11.503Z,18.70
2019-04-04T18:13:40.795Z,18.70
2019-04-04T18:16:10.104Z,18.70
2019-04-04T18:18:39.252Z,18.60
2019-04-04T18:21:08.859Z,18.70
2019-04-04T18:23:58.275Z,18.70
2019-04-04T18:26:47.634Z,18.70
2019-04-04T18:29:17.474Z,18.60
2019-04-04T18:31:46.634Z,18.60
2019-04-04T18:34:15.758Z,18.60
2019-04-04T18:36:45.043Z,18.60
2019-04-04T18:39:14.384Z,18.60
2019-04-04T18:41:44.777Z,18.50
2019-04-04T18:44:17.569Z,18.60
2019-04-04T18:46:47.025Z,18.60
2019-04-04T18:49:16.184Z,18.60
2019-04-04T18:51:45.334Z,18.60
2019-04-04T18:54:14.712Z,18.60
2019-04-04T18:56:43.838Z,18.50
2019-04-04T18:59:13.003Z,18.60
2019-04-04T19:01:42.158Z,18.50
2019-04-04T19:04:40.861Z,18.60
2019-04-04T19:07:11.284Z,18.60
2019-04-04T19:09:40.278Z,18.50
2019-04-04T19:12:09.731Z,18.50
2019-04-04T19:14:38.886Z,18.50
2019-04-04T19:17:09.371Z,18.50
2019-04-04T19:19:40.861Z,18.50
2019-04-04T19:22:10.232Z,18.40
2019-04-04T19:24:39.922Z,18.40
2019-04-04T19:27:10.948Z,18.40
2019-04-04T19:29:41.160Z,18.40
2019-04-04T19:32:13.293Z,18.40
2019-04-04T19:34:43.718Z,18.40
2019-04-04T19:37:13.728Z,18.30
2019-04-04T19:39:43.401Z,18.30
2019-04-04T19:42:12.924Z,18.30
2019-04-04T19:44:52.721Z,18.30
2019-04-04T19:47:13.581Z,18.30
2019-04-04T19:49:44.487Z,18.30
2019-04-04T19:52:16.680Z,18.30
2019-04-04T19:54:50.319Z,18.20
2019-04-04T19:57:19.636Z,18.30
2019-04-04T19:59:48.874Z,18.30
2019-04-04T20:02:19.914Z,18.30
2019-04-04T20:04:53.504Z,18.20
2019-04-04T20:07:26.839Z,18.30
2019-04-04T20:09:56.699Z,18.20
2019-04-04T20:12:25.966Z,18.30
2019-04-04T20:14:58.435Z,18.30
2019-04-04T20:17:30.013Z,18.20
2019-04-04T20:19:59.535Z,18.20
2019-04-04T20:22:29.565Z,18.20
2019-04-04T20:24:59.291Z,18.10
2019-04-04T20:27:30.135Z,18.10
2019-04-04T20:30:00.030Z,18.10
2019-04-04T20:32:29.280Z,18.10
2019-04-04T20:35:02.113Z,18.10
2019-04-04T20:37:31.172Z,18.10
2019-04-04T20:40:01.925Z,18.10
2019-04-04T20:42:31.652Z,18.00
2019-04-04T20:45:00.892Z,18.00
2019-04-04T20:47:30.093Z,18.00
2019-04-04T20:49:59.265Z,18.00
2019-04-04T20:52:28.974Z,18.00
2019-04-04T20:55:04.224Z,17.90
2019-04-04T20:57:33.840Z,18.00
2019-04-04T21:00:08.166Z,18.00
2019-04-04T21:02:46.692Z,17.90
2019-04-04T21:05:33.360Z,17.90
2019-04-04T21:08:05.953Z,17.90
2019-04-04T21:10:47.337Z,17.80
2019-04-04T21:13:41.697Z,17.80
2019-04-04T21:16:51.906Z,17.80
2019-04-04T21:19:47.351Z,17.80
2019-04-04T21:22:04.379Z,17.80
2019-04-04T21:24:38.620Z,17.80
2019-04-04T21:27:14.488Z,17.80
2019-04-04T21:29:43.978Z,17.70
2019-04-04T21:32:13.062Z,17.70
2019-04-04T21:34:43.180Z,17.70
2019-04-04T21:37:13.075Z,17.70
2019-04-04T21:43:03.544Z,17.70
2019-04-04T21:45:34.321Z,17.70
2019-04-04T21:48:05.246Z,17.70
2019-04-04T21:50:34.567Z,17.70
2019-04-04T21:53:04.618Z,17.60
2019-04-04T21:55:36.051Z,17.60
2019-04-04T21:58:07.178Z,17.60
2019-04-04T22:00:43.234Z,17.60
2019-04-04T22:03:13.412Z,17.60
2019-04-04T22:05:44.810Z,17.60
2019-04-04T22:08:14.677Z,17.60
2019-04-04T22:10:44.424Z,17.60
2019-04-04T22:13:14.621Z,17.50
2019-04-04T22:15:44.526Z,17.50
2019-04-04T22:18:13.687Z,17.50
2019-04-04T22:20:42.662Z,17.50
2019-04-04T22:23:16.568Z,17.50
2019-04-04T22:25:45.612Z,17.50
2019-04-04T22:28:14.593Z,17.40
2019-04-04T22:30:44.669Z,17.50
2019-04-04T22:33:13.710Z,17.40
2019-04-04T22:35:42.937Z,17.50
2019-04-04T22:38:13.568Z,17.40
2019-04-04T22:40:42.626Z,17.40
2019-04-04T22:43:11.782Z,17.40
2019-04-04T22:45:40.714Z,17.40
2019-04-04T22:48:09.730Z,17.40
2019-04-04T22:50:38.750Z,17.30
2019-04-04T22:53:11.928Z,17.30
2019-04-04T22:55:40.881Z,17.30
2019-04-04T22:58:10.070Z,17.30
2019-04-04T23:00:39.451Z,17.30
2019-04-04T23:03:08.676Z,17.20
2019-04-04T23:05:37.807Z,17.20
2019-04-04T23:08:07.655Z,17.30
2019-04-04T23:10:38.196Z,17.20
2019-04-04T23:13:07.422Z,17.20
2019-04-04T23:15:36.557Z,17.20
2019-04-04T23:18:05.602Z,17.10
2019-04-04T23:20:34.716Z,17.10
2019-04-04T23:23:03.649Z,17.10
2019-04-04T23:25:32.656Z,17.10
2019-04-04T23:28:01.828Z,17.00
2019-04-04T23:30:31.540Z,17.10
2019-04-04T23:33:00.616Z,17.10
2019-04-04T23:35:29.754Z,17.10
2019-04-04T23:37:58.796Z,17.10
2019-04-04T23:40:28.097Z,17.00
2019-04-04T23:42:57.208Z,17.00
2019-04-04T23:45:26.245Z,17.00
2019-04-04T23:47:56.932Z,17.10
2019-04-04T23:50:26.078Z,17.10
2019-04-04T23:52:55.243Z,17.00
2019-04-04T23:55:24.297Z,17.00
2019-04-04T23:57:53.475Z,17.00
